Time;durP1;ratioP1;P1;durP2;ratioP2;P2;SDS_P1;SDS_P2;PMS_P1;PMS_P2;Temp;Humidity;BMP_temperature;BMP_pressure;BME280_temperature;BME280_humidity;BME280_pressure;Samples;Min_cycle;Max_cycle;Signal;HPM_P1;HPM_P2
2023/04/27 00:01:35;;;;;;;1.47;0.72;;;15.10;99.90;;;;;;1886489;75;21069;-84
2023/04/27 00:04:27;;;;;;;2.37;1.10;;;15.10;99.90;;;;;;1913758;75;21078;-83
2023/04/27 00:07:21;;;;;;;3.35;1.00;;;14.90;99.90;;;;;;1891912;75;21151;-84
2023/04/27 00:10:13;;;;;;;2.42;0.95;;;14.90;99.90;;;;;;1906095;75;21092;-84
2023/04/27 00:13:04;;;;;;;1.70;0.90;;;14.80;99.90;;;;;;1902049;75;21102;-84
2023/04/27 00:15:56;;;;;;;1.87;0.82;;;14.80;99.90;;;;;;1896823;75;21072;-84
2023/04/27 00:18:47;;;;;;;2.25;0.93;;;14.80;99.90;;;;;;1920617;74;21189;-84
2023/04/27 00:21:39;;;;;;;2.35;1.22;;;14.80;99.90;;;;;;1896693;75;21147;-84
2023/04/27 00:24:30;;;;;;;1.27;0.80;;;14.80;99.90;;;;;;1914456;74;21063;-83
2023/04/27 00:27:22;;;;;;;1.57;0.90;;;14.90;99.90;;;;;;1930590;74;21109;-84
2023/04/27 00:32:52;;;;;;;2.00;0.95;;;14.60;99.90;;;;;;1952632;72;22251;-83
2023/04/27 00:35:43;;;;;;;2.37;1.00;;;14.50;99.90;;;;;;1932671;73;21119;-83
2023/04/27 00:38:34;;;;;;;2.27;1.00;;;14.40;99.90;;;;;;1917200;75;21110;-83
2023/04/27 00:41:27;;;;;;;1.40;0.85;;;14.40;99.90;;;;;;1927273;73;21163;-83
2023/04/27 00:44:24;;;;;;;3.85;1.00;;;14.40;99.90;;;;;;1928223;73;21086;-83
2023/04/27 00:47:16;;;;;;;1.55;0.80;;;14.40;99.90;;;;;;1927846;73;21083;-83
2023/04/27 00:50:10;;;;;;;1.62;0.90;;;14.40;99.90;;;;;;1916696;75;21155;-83
2023/04/27 00:53:02;;;;;;;1.87;0.80;;;14.40;99.90;;;;;;1916920;75;21102;-83
2023/04/27 00:55:54;;;;;;;1.37;0.90;;;14.40;99.90;;;;;;1880650;76;21097;-83
2023/04/27 00:58:46;;;;;;;2.72;0.82;;;14.40;99.90;;;;;;1868649;76;21114;-83
2023/04/27 01:01:37;;;;;;;2.55;0.90;;;14.40;99.90;;;;;;1917330;75;21115;-83
2023/04/27 01:04:30;;;;;;;1.47;1.02;;;14.30;99.90;;;;;;1928977;73;21175;-83
2023/04/27 01:07:26;;;;;;;1.65;0.85;;;14.30;99.90;;;;;;1920955;73;21061;-83
2023/04/27 01:10:18;;;;;;;2.70;0.90;;;14.30;99.90;;;;;;1916896;75;21140;-83
2023/04/27 01:13:09;;;;;;;2.27;1.02;;;14.20;99.90;;;;;;1875361;76;21106;-83
2023/04/27 01:16:01;;;;;;;2.80;1.00;;;14.20;99.90;;;;;;1931415;73;21518;-83
2023/04/27 01:18:53;;;;;;;4.62;1.00;;;14.10;99.90;;;;;;1919478;73;21212;-83
2023/04/27 01:21:46;;;;;;;2.90;0.88;;;14.10;99.90;;;;;;1934348;73;21125;-84
2023/04/27 01:24:37;;;;;;;1.40;0.93;;;14.10;99.90;;;;;;1926618;73;21209;-83
2023/04/27 01:27:29;;;;;;;2.80;1.17;;;14.10;99.90;;;;;;1916063;75;21160;-84
2023/04/27 01:30:21;;;;;;;1.55;0.90;;;14.10;99.90;;;;;;1916689;75;21176;-84
2023/04/27 01:33:14;;;;;;;2.37;0.90;;;14.10;99.90;;;;;;1916452;74;21176;-83
2023/04/27 01:36:07;;;;;;;2.15;1.00;;;14.20;99.90;;;;;;1916796;75;21177;-83
2023/04/27 01:38:58;;;;;;;2.87;1.00;;;14.20;99.90;;;;;;1916571;75;21110;-84
2023/04/27 01:41:49;;;;;;;1.40;1.00;;;14.20;99.90;;;;;;1930763;73;21607;-84
2023/04/27 01:44:40;;;;;;;1.45;0.88;;;14.20;99.90;;;;;;1920402;73;21097;-83
2023/04/27 01:47:32;;;;;;;2.58;0.80;;;14.10;99.90;;;;;;1916548;75;21074;-83
2023/04/27 01:50:23;;;;;;;2.77;1.00;;;14.10;99.90;;;;;;1916449;75;21201;-84
2023/04/27 01:53:15;;;;;;;4.40;1.00;;;14.00;99.90;;;;;;1916625;75;21110;-84
2023/04/27 01:56:07;;;;;;;1.77;0.78;;;14.10;99.90;;;;;;1877630;76;21123;-83
2023/04/27 01:58:58;;;;;;;1.80;0.93;;;14.10;99.90;;;;;;1922337;73;21098;-84
2023/04/27 02:01:50;;;;;;;1.92;1.10;;;14.00;99.90;;;;;;1926740;73;21675;-83
2023/04/27 02:04:43;;;;;;;1.47;0.88;;;13.90;99.90;;;;;;1916446;75;21058;-83
2023/04/27 02:07:35;;;;;;;3.95;1.17;;;13.90;99.90;;;;;;1927052;73;21122;-84
2023/04/27 02:10:27;;;;;;;4.17;0.98;;;13.80;99.90;;;;;;1944408;73;21223;-83
2023/04/27 02:13:18;;;;;;;1.87;1.07;;;13.70;99.90;;;;;;1916463;75;21110;-83
2023/04/27 02:16:10;;;;;;;1.90;1.22;;;13.70;99.90;;;;;;1916431;75;21542;-83
2023/04/27 02:19:03;;;;;;;1.55;0.90;;;13.60;99.90;;;;;;1916476;75;21156;-83
2023/04/27 02:21:54;;;;;;;2.87;1.27;;;13.60;99.90;;;;;;1916492;75;21087;-83
2023/04/27 02:24:46;;;;;;;3.27;1.20;;;13.60;99.90;;;;;;1916250;75;21568;-83
2023/04/27 02:27:39;;;;;;;1.37;1.10;;;13.50;99.90;;;;;;1916498;75;21152;-83
2023/04/27 02:30:31;;;;;;;2.75;1.30;;;13.50;99.90;;;;;;1916410;75;21374;-83
2023/04/27 02:33:22;;;;;;;1.27;0.95;;;13.40;99.90;;;;;;1887784;73;21529;-84
2023/04/27 02:36:13;;;;;;;1.90;1.10;;;13.40;99.90;;;;;;1878099;76;21195;-84
2023/04/27 02:39:08;;;;;;;1.72;1.10;;;13.30;99.90;;;;;;1930288;73;21103;-85
2023/04/27 02:42:01;;;;;;;1.50;1.07;;;13.30;99.90;;;;;;1930854;73;21126;-83
2023/04/27 02:44:53;;;;;;;1.80;1.20;;;13.30;99.90;;;;;;1926365;73;21091;-82
2023/04/27 02:47:45;;;;;;;2.35;1.30;;;13.30;99.90;;;;;;1922318;73;21648;-83
2023/04/27 02:50:41;;;;;;;4.45;1.30;;;13.20;99.90;;;;;;1937140;73;21114;-83
2023/04/27 02:53:32;;;;;;;1.22;0.93;;;13.20;99.90;;;;;;1915174;74;21138;-83
2023/04/27 02:56:24;;;;;;;1.72;1.10;;;13.20;99.90;;;;;;1918762;73;21118;-83
2023/04/27 02:59:16;;;;;;;2.52;1.30;;;13.10;99.90;;;;;;1938466;73;21052;-83
2023/04/27 03:02:07;;;;;;;3.60;1.40;;;13.10;99.90;;;;;;1916665;75;21118;-82
2023/04/27 03:04:59;;;;;;;1.32;1.02;;;13.10;99.90;;;;;;1916434;75;21105;-83
2023/04/27 03:07:50;;;;;;;2.05;1.05;;;13.00;99.90;;;;;;1916470;75;21124;-82
2023/04/27 03:10:42;;;;;;;4.20;1.40;;;13.00;99.90;;;;;;1928408;73;21099;-82
2023/04/27 03:13:40;;;;;;;1.82;1.10;;;12.90;99.90;;;;;;1921820;73;21099;-83
2023/04/27 03:16:28;;;;;;;3.95;1.32;;;12.90;99.90;;;;;;1916421;75;21163;-83
2023/04/27 03:19:20;;;;;;;2.52;1.25;;;12.90;99.90;;;;;;1930060;73;21253;-83
2023/04/27 03:24:52;;;;;;;4.78;1.47;;;12.80;99.90;;;;;;1942824;72;22178;-84
2023/04/27 03:27:43;;;;;;;2.58;1.40;;;12.70;99.90;;;;;;1891372;75;21176;-84
2023/04/27 03:30:34;;;;;;;2.50;1.40;;;12.70;99.90;;;;;;1885715;75;21106;-84
2023/04/27 03:33:27;;;;;;;3.02;1.40;;;12.60;99.90;;;;;;1883101;75;21122;-83
2023/04/27 03:36:18;;;;;;;3.62;1.27;;;12.60;99.90;;;;;;1883046;75;21094;-83
2023/04/27 03:39:10;;;;;;;6.70;2.17;;;12.50;99.90;;;;;;1885179;75;21178;-83
2023/04/27 03:42:02;;;;;;;4.62;2.65;;;12.50;99.90;;;;;;1887245;75;21104;-83
2023/04/27 03:44:53;;;;;;;12.63;9.58;;;12.50;99.90;;;;;;1894828;75;21103;-83
2023/04/27 03:47:45;;;;;;;14.53;9.48;;;12.50;99.90;;;;;;1894291;75;21109;-84
2023/04/27 03:50:37;;;;;;;13.68;9.80;;;12.40;99.90;;;;;;1893891;75;21172;-83
2023/04/27 03:53:28;;;;;;;14.33;10.13;;;12.40;99.90;;;;;;1888238;75;21083;-83
2023/04/27 03:56:20;;;;;;;20.65;14.75;;;12.40;99.90;;;;;;1883208;75;21115;-83
2023/04/27 03:59:12;;;;;;;17.27;11.30;;;12.30;99.90;;;;;;1883090;75;21060;-83
2023/04/27 04:02:05;;;;;;;12.35;8.43;;;12.30;99.90;;;;;;1882806;75;21134;-84
2023/04/27 04:04:57;;;;;;;12.53;8.43;;;12.30;99.90;;;;;;1904560;75;21368;-83
2023/04/27 04:07:48;;;;;;;10.82;6.17;;;12.20;99.90;;;;;;1884786;75;21169;-83
2023/04/27 04:10:40;;;;;;;7.35;4.65;;;12.30;99.90;;;;;;1875378;75;21161;-83
2023/04/27 04:13:32;;;;;;;7.42;4.58;;;12.20;99.90;;;;;;1893813;75;21771;-83
2023/04/27 04:16:23;;;;;;;6.25;3.95;;;12.20;99.90;;;;;;1891042;75;21173;-83
2023/04/27 04:19:15;;;;;;;5.47;3.33;;;12.20;99.90;;;;;;1886061;75;21048;-83
2023/04/27 04:22:07;;;;;;;3.45;2.58;;;12.20;99.90;;;;;;1883110;75;21043;-85
2023/04/27 04:24:58;;;;;;;5.00;3.00;;;12.20;99.90;;;;;;1882236;75;21138;-85
2023/04/27 04:27:49;;;;;;;5.30;2.60;;;12.10;99.90;;;;;;1886239;75;21111;-83
2023/04/27 04:30:42;;;;;;;4.95;2.22;;;12.10;99.90;;;;;;1873076;76;21148;-83
2023/04/27 04:33:33;;;;;;;5.05;2.00;;;12.10;99.90;;;;;;1895809;75;21135;-83
2023/04/27 04:36:25;;;;;;;3.40;1.62;;;12.10;99.90;;;;;;1894275;75;21115;-83
2023/04/27 04:39:19;;;;;;;4.30;1.72;;;12.10;99.90;;;;;;1872536;76;21122;-84
2023/04/27 04:42:10;;;;;;;3.98;1.72;;;12.10;99.90;;;;;;1887637;75;21172;-83
2023/04/27 04:45:02;;;;;;;3.37;1.70;;;12.10;99.90;;;;;;1871845;76;22096;-84
2023/04/27 04:47:54;;;;;;;7.00;1.75;;;12.00;99.90;;;;;;1892718;75;21142;-84
2023/04/27 04:50:46;;;;;;;3.35;1.47;;;12.00;99.90;;;;;;1871746;75;21587;-84
2023/04/27 04:53:38;;;;;;;4.33;1.65;;;11.90;99.90;;;;;;1890246;75;21103;-83
2023/04/27 04:56:32;;;;;;;2.90;1.45;;;11.80;99.90;;;;;;1895169;75;21281;-83
2023/04/27 04:59:24;;;;;;;4.83;1.50;;;11.80;99.90;;;;;;1897192;75;21102;-83
2023/04/27 05:02:16;;;;;;;2.30;1.35;;;11.80;99.90;;;;;;1877692;75;21099;-83
2023/04/27 05:05:08;;;;;;;2.02;1.35;;;11.80;99.90;;;;;;1886672;75;21159;-83
2023/04/27 05:08:00;;;;;;;2.90;1.75;;;11.80;99.90;;;;;;1887577;75;21184;-85
2023/04/27 05:10:52;;;;;;;5.20;1.80;;;11.70;99.90;;;;;;1895624;75;21568;-85
2023/04/27 05:13:43;;;;;;;5.70;2.05;;;11.80;99.90;;;;;;1871878;75;21162;-85
2023/04/27 05:16:35;;;;;;;3.83;1.85;;;11.90;99.90;;;;;;1874075;76;21147;-84
2023/04/27 05:19:27;;;;;;;2.12;1.50;;;11.80;99.90;;;;;;1891066;75;21107;-84
2023/04/27 05:22:19;;;;;;;3.35;1.60;;;11.80;99.90;;;;;;1884238;75;21204;-84
2023/04/27 05:25:11;;;;;;;2.90;1.50;;;11.80;99.90;;;;;;1887154;75;21172;-84
2023/04/27 05:28:02;;;;;;;1.90;1.30;;;11.80;99.90;;;;;;1887038;75;21051;-84
2023/04/27 05:30:54;;;;;;;3.10;1.70;;;11.90;99.90;;;;;;1890375;75;21171;-85
2023/04/27 05:33:45;;;;;;;2.58;1.60;;;11.90;99.90;;;;;;1890966;75;21134;-85
2023/04/27 05:36:37;;;;;;;2.95;1.70;;;11.90;99.90;;;;;;1884626;73;21181;-86
2023/04/27 05:39:28;;;;;;;3.37;1.87;;;12.00;99.90;;;;;;1876718;75;21184;-84
2023/04/27 05:42:23;;;;;;;4.17;1.90;;;12.10;99.90;;;;;;1891566;75;21117;-84
2023/04/27 05:45:15;;;;;;;3.67;1.80;;;12.00;99.90;;;;;;1892901;75;21184;-84
2023/04/27 05:48:06;;;;;;;3.30;1.90;;;12.10;99.90;;;;;;1890834;75;21491;-84
2023/04/27 05:51:01;;;;;;;7.83;1.90;;;12.10;99.90;;;;;;1882646;75;21107;-85
2023/04/27 05:53:54;;;;;;;4.08;2.12;;;12.10;99.90;;;;;;1898455;74;21161;-85
2023/04/27 05:59:28;;;;;;;4.53;2.08;;;12.10;99.90;;;;;;1955897;72;22168;-85
2023/04/27 06:02:20;;;;;;;6.65;2.80;;;12.20;99.90;;;;;;1883351;74;21111;-85
2023/04/27 06:05:12;;;;;;;5.50;2.42;;;12.20;99.90;;;;;;1905292;74;21563;-84
2023/04/27 06:08:03;;;;;;;9.30;3.72;;;12.20;99.90;;;;;;1887895;75;21116;-85
2023/04/27 06:10:55;;;;;;;10.38;5.95;;;12.20;99.90;;;;;;1894293;75;21114;-85
2023/04/27 06:13:47;;;;;;;6.20;3.70;;;12.30;99.90;;;;;;1921870;74;21552;-85
2023/04/27 06:16:39;;;;;;;6.42;3.50;;;12.40;99.90;;;;;;1882700;75;21186;-86
2023/04/27 06:19:31;;;;;;;7.50;3.15;;;12.30;99.90;;;;;;1922735;74;21172;-85
2023/04/27 06:22:22;;;;;;;6.53;2.65;;;12.40;99.90;;;;;;1884689;75;21131;-85
2023/04/27 06:25:14;;;;;;;8.20;2.58;;;12.50;99.90;;;;;;1896946;74;21085;-86
2023/04/27 06:30:58;;;;;;;5.08;2.85;;;12.60;99.90;;;;;;1956577;72;22179;-86
2023/04/27 06:33:50;;;;;;;8.30;3.80;;;12.70;99.90;;;;;;1901887;75;21235;-86
2023/04/27 06:36:41;;;;;;;8.68;2.83;;;12.80;99.90;;;;;;1911067;75;21106;-85
2023/04/27 06:39:33;;;;;;;5.87;2.77;;;12.90;99.90;;;;;;1890187;75;21190;-87
2023/04/27 06:42:26;;;;;;;6.75;4.10;;;12.90;99.90;;;;;;1905703;75;21340;-86
2023/04/27 06:45:17;;;;;;;5.78;3.22;;;13.00;99.90;;;;;;1895361;75;21059;-85
2023/04/27 06:48:09;;;;;;;6.42;3.40;;;13.00;99.90;;;;;;1895420;75;21091;-85
2023/04/27 06:51:01;;;;;;;5.75;3.15;;;13.10;99.90;;;;;;1894921;75;21143;-85
2023/04/27 06:53:56;;;;;;;5.10;2.65;;;13.30;99.90;;;;;;1894760;75;21101;-86
2023/04/27 06:56:47;;;;;;;4.75;2.62;;;13.40;99.90;;;;;;1898851;75;21409;-85
2023/04/27 06:59:39;;;;;;;4.47;2.30;;;13.40;99.90;;;;;;1883839;75;21139;-85
2023/04/27 07:03:02;;;;;;;5.22;2.30;;;13.50;99.90;;;;;;1883420;75;21175;-86
2023/04/27 07:08:37;;;;;;;5.90;2.20;;;13.70;99.90;;;;;;1951450;72;22146;-85
2023/04/27 07:11:28;;;;;;;7.85;2.33;;;13.80;99.90;;;;;;1900892;75;21145;-85
2023/04/27 07:14:20;;;;;;;8.40;2.67;;;13.90;99.90;;;;;;1884287;76;21171;-87
2023/04/27 07:19:55;;;;;;;4.03;1.52;;;14.10;99.90;;;;;;1955547;72;22210;-87
2023/04/27 07:22:46;;;;;;;3.95;2.22;;;14.20;99.90;;;;;;1882712;75;21102;-86
2023/04/27 07:25:39;;;;;;;2.62;1.57;;;14.20;99.90;;;;;;1897165;75;21095;-85
2023/04/27 07:28:31;;;;;;;5.55;1.77;;;14.30;99.90;;;;;;1894875;75;21160;-86
2023/04/27 07:31:23;;;;;;;2.87;1.50;;;14.30;99.90;;;;;;1894566;75;21102;-86
2023/04/27 07:34:18;;;;;;;4.87;1.70;;;14.40;99.90;;;;;;1897031;75;21614;-85
2023/04/27 07:37:10;;;;;;;2.55;1.35;;;14.50;99.90;;;;;;1884068;75;21159;-85
2023/04/27 07:40:15;;;;;;;4.12;1.80;;;14.60;99.90;;;;;;1893383;75;21556;-85
2023/04/27 07:42:57;;;;;;;4.90;1.65;;;14.70;99.90;;;;;;1895132;75;21051;-85
2023/04/27 07:45:53;;;;;;;2.52;1.55;;;14.80;99.90;;;;;;1895178;75;21348;-85
2023/04/27 07:48:44;;;;;;;4.75;2.02;;;14.80;99.90;;;;;;1883868;76;21110;-85
2023/04/27 07:51:36;;;;;;;3.40;1.72;;;14.90;99.90;;;;;;1896465;75;21281;-85
2023/04/27 07:54:31;;;;;;;5.75;2.20;;;15.00;99.90;;;;;;1894653;75;21062;-85
2023/04/27 07:57:24;;;;;;;4.67;1.70;;;15.10;99.90;;;;;;1894675;75;21067;-85
2023/04/27 08:00:16;;;;;;;5.58;1.77;;;15.20;99.90;;;;;;1897559;75;21881;-85
2023/04/27 08:05:47;;;;;;;4.65;1.40;;;15.30;99.90;;;;;;1946083;72;22213;-86
2023/04/27 08:08:39;;;;;;;3.77;1.42;;;15.40;99.90;;;;;;1906304;75;21106;-86
2023/04/27 08:11:33;;;;;;;3.22;1.20;;;15.50;99.90;;;;;;1903388;75;21051;-87
2023/04/27 08:14:25;;;;;;;4.25;1.20;;;15.50;99.90;;;;;;1898710;75;21126;-85
2023/04/27 08:17:17;;;;;;;4.45;1.32;;;15.60;99.90;;;;;;1894860;75;21150;-85
2023/04/27 08:20:11;;;;;;;2.47;1.00;;;15.60;99.90;;;;;;1894721;75;21199;-85
2023/04/27 08:23:02;;;;;;;3.45;1.02;;;15.80;99.90;;;;;;1895034;75;21152;-86
2023/04/27 08:25:54;;;;;;;3.40;1.17;;;15.80;99.90;;;;;;1899876;75;21146;-85
2023/04/27 08:28:46;;;;;;;3.35;0.90;;;15.90;99.90;;;;;;1884243;76;21070;-86
2023/04/27 08:31:37;;;;;;;2.83;1.00;;;15.90;99.90;;;;;;1906078;75;21105;-85
2023/04/27 08:34:30;;;;;;;2.25;1.02;;;16.00;99.90;;;;;;1883965;75;22095;-86
2023/04/27 08:37:22;;;;;;;1.98;0.90;;;16.00;99.90;;;;;;1884016;76;21177;-86
2023/04/27 08:40:14;;;;;;;2.65;1.22;;;16.20;99.90;;;;;;1898306;75;21114;-85
2023/04/27 08:43:07;;;;;;;4.28;1.25;;;16.20;99.90;;;;;;1895016;75;21106;-86
2023/04/27 08:45:59;;;;;;;1.70;0.88;;;16.30;99.90;;;;;;1890798;75;21515;-86
2023/04/27 08:48:52;;;;;;;2.72;0.98;;;16.40;99.90;;;;;;1905163;75;21102;-85
2023/04/27 08:51:44;;;;;;;1.95;0.90;;;16.50;99.90;;;;;;1900329;75;21139;-85
2023/04/27 08:54:36;;;;;;;4.72;1.10;;;16.50;99.90;;;;;;1895571;75;21168;-86
2023/04/27 08:57:27;;;;;;;4.58;1.20;;;16.60;99.90;;;;;;1888725;75;21104;-86
2023/04/27 09:00:21;;;;;;;2.47;0.90;;;16.70;99.90;;;;;;1885045;75;21103;-85
2023/04/27 09:03:25;;;;;;;2.70;1.12;;;16.80;99.90;;;;;;1884046;76;21084;-86
2023/04/27 09:06:17;;;;;;;3.05;1.10;;;16.80;99.90;;;;;;1905730;74;21116;-85
2023/04/27 09:09:10;;;;;;;2.08;0.80;;;16.90;99.90;;;;;;1904229;74;21247;-86
2023/04/27 09:12:02;;;;;;;2.50;0.70;;;17.10;99.90;;;;;;1904960;74;21153;-85
2023/04/27 09:15:02;;;;;;;3.65;1.47;;;17.20;99.90;;;;;;1905994;74;21142;-86
2023/04/27 09:17:57;;;;;;;1.75;0.80;;;17.40;99.90;;;;;;1910440;74;21216;-85
2023/04/27 09:20:50;;;;;;;2.00;1.07;;;17.50;99.90;;;;;;1926261;74;21096;-86
2023/04/27 09:23:43;;;;;;;2.83;1.05;;;17.60;99.90;;;;;;1904065;74;21132;-86
2023/04/27 09:26:36;;;;;;;1.22;0.70;;;17.80;99.90;;;;;;1903610;74;21110;-86
2023/04/27 09:29:38;;;;;;;1.62;0.80;;;17.90;99.90;;;;;;1905570;74;21585;-86
2023/04/27 09:32:30;;;;;;;3.20;1.05;;;18.00;99.90;;;;;;1893081;76;21205;-86
2023/04/27 09:35:26;;;;;;;2.77;0.80;;;18.20;99.90;;;;;;1905535;74;21094;-85
2023/04/27 09:38:22;;;;;;;3.40;1.00;;;18.40;99.90;;;;;;1903742;74;21113;-86
2023/04/27 09:41:13;;;;;;;2.05;0.90;;;18.60;99.90;;;;;;1904262;74;21230;-85
2023/04/27 09:44:05;;;;;;;2.27;1.17;;;18.80;99.90;;;;;;1904989;74;21633;-85
2023/04/27 09:46:58;;;;;;;6.05;1.27;;;19.00;99.90;;;;;;1893222;76;21073;-85
2023/04/27 09:49:49;;;;;;;3.52;1.80;;;19.20;99.90;;;;;;1903924;74;21219;-85
2023/04/27 09:52:41;;;;;;;1.10;0.65;;;19.50;99.90;;;;;;1904320;74;21113;-85
2023/04/27 09:55:38;;;;;;;2.50;1.05;;;19.60;99.90;;;;;;1904183;74;21561;-85
2023/04/27 09:58:42;;;;;;;2.27;0.90;;;19.80;99.90;;;;;;1907555;74;21105;-85
2023/04/27 10:04:30;;;;;;;5.75;0.65;;;20.20;99.90;;;;;;1941155;72;22207;-85
2023/04/27 10:07:21;;;;;;;2.55;0.70;;;20.30;99.90;;;;;;1924005;73;21586;-85
2023/04/27 10:10:19;;;;;;;1.70;0.60;;;20.30;99.90;;;;;;1926581;73;21053;-85
2023/04/27 10:13:13;;;;;;;1.52;0.70;;;20.30;99.30;;;;;;1917076;75;21131;-85
2023/04/27 10:16:18;;;;;;;0.90;0.60;;;20.20;99.60;;;;;;1917101;75;21624;-85
2023/04/27 10:19:11;;;;;;;1.52;0.68;;;20.40;99.40;;;;;;1916982;75;21113;-85
2023/04/27 10:22:04;;;;;;;1.40;0.60;;;20.50;98.80;;;;;;1916985;75;21098;-87
2023/04/27 10:24:55;;;;;;;0.93;0.80;;;20.70;98.20;;;;;;1920476;73;21093;-85
2023/04/27 10:27:52;;;;;;;3.25;0.90;;;20.70;98.30;;;;;;1929654;73;21114;-85
2023/04/27 10:30:45;;;;;;;1.35;0.50;;;21.10;98.10;;;;;;1916532;75;21068;-85
2023/04/27 10:33:43;;;;;;;1.95;0.60;;;21.40;97.20;;;;;;1916390;75;21059;-86
2023/04/27 10:36:37;;;;;;;1.50;0.65;;;21.70;95.80;;;;;;1917236;75;21145;-85
2023/04/27 10:39:32;;;;;;;1.65;0.60;;;21.60;94.50;;;;;;1917194;75;21087;-85
2023/04/27 10:45:11;;;;;;;2.03;1.30;;;21.80;93.90;;;;;;1941124;72;27920;-85
2023/04/27 10:48:03;;;;;;;0.85;0.50;;;22.10;91.80;;;;;;1885059;75;21914;-85
2023/04/27 10:50:54;;;;;;;1.67;0.60;;;22.20;92.40;;;;;;1884058;76;21107;-85
2023/04/27 10:53:46;;;;;;;1.32;0.60;;;22.10;91.60;;;;;;1904466;75;21179;-85
2023/04/27 10:56:38;;;;;;;1.72;0.53;;;22.20;91.70;;;;;;1898774;75;21124;-85
2023/04/27 10:59:29;;;;;;;1.47;0.40;;;22.40;90.90;;;;;;1894147;75;21175;-85
2023/04/27 11:02:26;;;;;;;0.45;0.30;;;22.40;90.60;;;;;;1889608;75;21573;-85
2023/04/27 11:05:21;;;;;;;0.45;0.37;;;22.30;89.60;;;;;;1884381;76;21148;-85
2023/04/27 11:08:14;;;;;;;1.95;0.60;;;22.40;89.60;;;;;;1902116;75;21067;-85
2023/04/27 11:11:08;;;;;;;2.35;0.57;;;22.40;89.00;;;;;;1903747;75;21098;-85
2023/04/27 11:14:01;;;;;;;1.45;0.60;;;22.40;87.70;;;;;;1906261;75;21102;-85
2023/04/27 11:16:52;;;;;;;1.50;0.50;;;22.30;88.00;;;;;;1910185;75;21095;-85
2023/04/27 11:19:47;;;;;;;2.70;0.60;;;22.20;87.90;;;;;;1896722;75;21190;-85
2023/04/27 11:22:48;;;;;;;2.15;0.72;;;22.10;88.00;;;;;;1899895;75;21120;-85
2023/04/27 11:25:39;;;;;;;1.20;0.78;;;22.20;89.00;;;;;;1896951;75;21133;-86
2023/04/27 11:28:31;;;;;;;2.02;0.70;;;22.00;88.00;;;;;;1894761;75;21106;-85
2023/04/27 11:31:22;;;;;;;0.88;0.60;;;22.10;88.90;;;;;;1894966;75;21120;-86
2023/04/27 11:34:18;;;;;;;3.47;0.98;;;22.30;88.80;;;;;;1897937;75;21099;-85
2023/04/27 11:37:10;;;;;;;0.95;0.60;;;22.50;88.40;;;;;;1884105;76;21168;-85
2023/04/27 11:40:04;;;;;;;3.95;0.60;;;22.60;88.30;;;;;;1906261;75;21121;-85
2023/04/27 11:43:02;;;;;;;2.37;0.80;;;22.50;87.60;;;;;;1906090;75;21091;-85
2023/04/27 11:45:52;;;;;;;2.63;0.50;;;22.50;88.10;;;;;;1895164;75;21123;-85
2023/04/27 11:48:44;;;;;;;1.20;0.60;;;22.40;87.90;;;;;;1890828;75;21104;-85
2023/04/27 11:51:36;;;;;;;2.50;0.55;;;22.10;89.50;;;;;;1884147;76;21549;-85
2023/04/27 11:54:30;;;;;;;1.32;0.62;;;22.00;90.40;;;;;;1906142;75;21503;-85
2023/04/27 11:57:27;;;;;;;1.32;0.70;;;22.00;91.00;;;;;;1905808;75;21107;-85
2023/04/27 12:00:20;;;;;;;1.90;0.60;;;22.00;91.50;;;;;;1905204;75;21432;-85
2023/04/27 12:03:14;;;;;;;1.50;0.57;;;21.90;92.00;;;;;;1899572;75;21124;-85
2023/04/27 12:06:06;;;;;;;2.58;0.72;;;21.80;92.10;;;;;;1916209;75;21095;-85
2023/04/27 12:09:04;;;;;;;2.15;0.90;;;21.90;92.60;;;;;;1882406;75;21094;-85
2023/04/27 12:11:55;;;;;;;1.60;0.50;;;21.80;92.40;;;;;;1879284;75;21164;-84
2023/04/27 12:14:47;;;;;;;1.07;0.53;;;21.90;90.90;;;;;;1871663;77;21127;-85
2023/04/27 12:17:39;;;;;;;1.35;0.60;;;22.00;91.00;;;;;;1885655;75;21158;-85
2023/04/27 12:20:30;;;;;;;1.05;0.50;;;22.00;91.30;;;;;;1882033;75;21146;-85
2023/04/27 12:23:22;;;;;;;2.83;0.45;;;21.90;91.10;;;;;;1882297;75;21123;-85
2023/04/27 12:26:13;;;;;;;3.15;0.70;;;22.00;91.70;;;;;;1883525;75;21114;-85
2023/04/27 12:29:05;;;;;;;0.82;0.28;;;22.10;91.60;;;;;;1887126;75;21095;-85
2023/04/27 12:31:57;;;;;;;0.78;0.50;;;22.20;90.50;;;;;;1881974;75;21288;-84
2023/04/27 12:34:48;;;;;;;1.40;0.35;;;22.10;89.70;;;;;;1881632;75;21048;-85
2023/04/27 12:37:40;;;;;;;2.05;0.50;;;22.20;89.70;;;;;;1882353;75;21491;-84
2023/04/27 12:40:33;;;;;;;1.57;0.60;;;22.10;89.60;;;;;;1883378;76;21208;-85
2023/04/27 12:43:25;;;;;;;0.90;0.33;;;22.10;90.60;;;;;;1882372;75;21147;-84
2023/04/27 12:46:17;;;;;;;1.42;0.62;;;22.20;90.00;;;;;;1882331;75;21099;-85
2023/04/27 12:49:09;;;;;;;0.45;0.40;;;22.20;87.60;;;;;;1882295;75;21132;-85
2023/04/27 12:52:01;;;;;;;0.55;0.40;;;22.20;86.50;;;;;;1903858;75;21216;-84
2023/04/27 12:54:56;;;;;;;1.45;0.50;;;22.30;86.20;;;;;;1884209;75;21107;-84
2023/04/27 12:57:45;;;;;;;0.50;0.50;;;22.30;87.90;;;;;;1893829;75;21107;-84
2023/04/27 13:00:37;;;;;;;0.98;0.50;;;22.40;88.20;;;;;;1890966;75;21103;-85
2023/04/27 13:03:28;;;;;;;1.80;0.50;;;22.50;87.60;;;;;;1871545;77;21084;-85
2023/04/27 13:07:20;;;;;;;1.82;0.35;;;22.60;86.00;;;;;;1885003;75;21152;-85
2023/04/27 13:10:15;;;;;;;1.32;0.47;;;22.70;83.70;;;;;;1879128;74;21117;-85
2023/04/27 13:13:06;;;;;;;0.62;0.23;;;22.60;82.80;;;;;;1885572;75;21172;-85
2023/04/27 13:15:57;;;;;;;0.53;0.40;;;22.70;83.40;;;;;;1884228;75;21121;-85
2023/04/27 13:18:51;;;;;;;0.57;0.40;;;22.90;84.10;;;;;;1874707;75;21085;-84
2023/04/27 13:21:42;;;;;;;2.33;0.53;;;23.00;82.40;;;;;;1893328;75;21055;-84
2023/04/27 13:24:34;;;;;;;1.95;0.50;;;23.20;82.00;;;;;;1883129;75;21107;-84
2023/04/27 13:27:27;;;;;;;1.40;0.40;;;23.10;82.50;;;;;;1882772;75;21108;-85
2023/04/27 13:30:21;;;;;;;0.70;0.35;;;23.10;81.00;;;;;;1893523;75;21124;-85
2023/04/27 13:33:13;;;;;;;1.45;0.40;;;23.10;79.90;;;;;;1877197;75;21060;-84
2023/04/27 13:36:07;;;;;;;0.70;0.30;;;23.00;79.30;;;;;;1882152;75;21184;-84
2023/04/27 13:41:38;;;;;;;0.90;0.60;;;23.10;79.60;;;;;;1941582;72;22208;-86
2023/04/27 13:44:30;;;;;;;0.50;0.40;;;23.20;80.20;;;;;;1911063;75;21549;-85
2023/04/27 13:47:22;;;;;;;1.70;0.40;;;23.20;80.00;;;;;;1917102;75;21094;-84
2023/04/27 13:50:14;;;;;;;2.02;0.80;;;23.30;80.60;;;;;;1917100;75;21112;-84
2023/04/27 13:55:46;;;;;;;1.42;0.50;;;23.30;79.50;;;;;;1953634;72;22257;-84
2023/04/27 13:58:37;;;;;;;0.75;0.40;;;23.40;79.70;;;;;;1904166;75;21129;-84
2023/04/27 14:01:29;;;;;;;0.50;0.20;;;23.70;78.90;;;;;;1884014;75;21392;-84
2023/04/27 14:04:21;;;;;;;0.88;0.40;;;24.00;77.30;;;;;;1906028;75;21178;-84
2023/04/27 14:07:13;;;;;;;0.60;0.40;;;24.10;76.00;;;;;;1889112;75;21109;-84
2023/04/27 14:10:05;;;;;;;0.35;0.25;;;24.30;77.20;;;;;;1894994;75;21591;-85
2023/04/27 14:12:58;;;;;;;0.47;0.40;;;24.70;72.90;;;;;;1900244;75;21145;-85
2023/04/27 14:15:49;;;;;;;1.17;0.30;;;24.70;73.10;;;;;;1883464;75;21399;-84
2023/04/27 14:21:27;;;;;;;1.00;0.50;;;24.90;72.50;;;;;;1940684;72;28001;-84
2023/04/27 14:24:18;;;;;;;2.45;0.60;;;24.80;72.70;;;;;;1900959;75;21118;-84
2023/04/27 14:27:09;;;;;;;1.40;0.50;;;24.50;73.40;;;;;;1895980;75;21610;-86
2023/04/27 14:30:01;;;;;;;0.98;0.50;;;24.30;73.80;;;;;;1894524;75;21236;-85
2023/04/27 14:32:53;;;;;;;3.67;0.60;;;24.10;73.90;;;;;;1894484;75;21635;-84
2023/04/27 14:35:44;;;;;;;2.27;0.50;;;24.20;74.30;;;;;;1899114;75;21367;-86
2023/04/27 14:38:35;;;;;;;0.70;0.50;;;24.30;74.10;;;;;;1896649;75;21653;-85
2023/04/27 14:41:30;;;;;;;1.30;0.50;;;24.50;74.40;;;;;;1894610;75;21094;-84
2023/04/27 14:44:21;;;;;;;1.10;0.40;;;24.60;74.20;;;;;;1894686;75;21569;-84
2023/04/27 14:47:12;;;;;;;0.70;0.30;;;24.60;74.00;;;;;;1896745;75;21184;-84
2023/04/27 14:50:04;;;;;;;3.15;0.45;;;24.60;73.30;;;;;;1898668;75;21120;-85
2023/04/27 14:52:57;;;;;;;1.47;0.53;;;24.60;73.40;;;;;;1894590;75;21639;-84
2023/04/27 14:55:48;;;;;;;0.72;0.30;;;24.50;73.40;;;;;;1889982;75;21577;-84
2023/04/27 14:58:39;;;;;;;2.15;0.40;;;24.70;74.30;;;;;;1905572;75;21135;-84
2023/04/27 15:01:31;;;;;;;0.47;0.40;;;24.80;75.60;;;;;;1900673;75;21172;-84
2023/04/27 15:04:22;;;;;;;2.45;0.60;;;24.70;74.30;;;;;;1894890;75;21145;-85
2023/04/27 15:07:14;;;;;;;0.62;0.50;;;24.80;75.70;;;;;;1895102;75;21059;-85
2023/04/27 15:10:08;;;;;;;0.72;0.60;;;24.90;75.50;;;;;;1895077;75;21146;-84
2023/04/27 15:13:01;;;;;;;0.55;0.40;;;24.90;75.20;;;;;;1900780;75;21090;-84
2023/04/27 15:15:55;;;;;;;0.47;0.40;;;25.30;75.30;;;;;;1895991;75;21111;-84
2023/04/27 15:18:47;;;;;;;1.22;0.40;;;25.50;75.30;;;;;;1894838;75;21152;-84
2023/04/27 15:21:38;;;;;;;2.25;0.50;;;25.60;74.70;;;;;;1905928;74;21126;-84
2023/04/27 15:24:29;;;;;;;0.65;0.40;;;25.50;74.70;;;;;;1913964;74;21110;-85
2023/04/27 15:27:21;;;;;;;1.77;0.65;;;25.50;74.10;;;;;;1913906;74;21101;-85
2023/04/27 15:30:15;;;;;;;1.47;0.68;;;25.30;74.40;;;;;;1911083;74;21160;-85